Winter Beach, Florida
Current Conditions -  °F | °C
As of 10:53 AM on Sunday 25 Jan 2015 (Local Time) from KVRB Reporting Station
Clear Clear  
Wind Chill: 59°   Ceiling: Unl
Heat Index: 59°   Visibility: 10mi
Dew Point: 36°   Wind: 7mph
Humidity: 42%   Direction: NA
Pressure: 30.11"   Gusts: NA
Location:  27.72°N, 80.42°W
Report Text: KVRB 251553Z VRB06KT 10SM CLR 15/02 A3011 RMK AO2 SLP196 T01500022
Loading
Personal Weather Stations






























Interactive Weather Map New forecast layout! Learn more

10-Day Weather Forecast

Advertisements
Track Severe Weather on mobile